sensor_id;sensor_type;location;lat;lon;timestamp;P1;durP1;ratioP1;P2;durP2;ratioP2
20488;SDS011;10403;54.092;12.122;2023-12-07T00:00:06;193.17;;;65.27;;
20488;SDS011;10403;54.092;12.122;2023-12-07T00:02:34;195.73;;;64.20;;
20488;SDS011;10403;54.092;12.122;2023-12-07T00:05:01;194.60;;;66.03;;
20488;SDS011;10403;54.092;12.122;2023-12-07T00:07:28;196.80;;;66.10;;
20488;SDS011;10403;54.092;12.122;2023-12-07T00:09:55;200.80;;;67.07;;
20488;SDS011;10403;54.092;12.122;2023-12-07T00:12:22;200.47;;;70.17;;
20488;SDS011;10403;54.092;12.122;2023-12-07T00:14:49;211.83;;;68.37;;
20488;SDS011;10403;54.092;12.122;2023-12-07T00:17:17;208.17;;;67.63;;
20488;SDS011;10403;54.092;12.122;2023-12-07T00:19:44;216.57;;;69.63;;
20488;SDS011;10403;54.092;12.122;2023-12-07T00:22:11;213.57;;;68.50;;
20488;SDS011;10403;54.092;12.122;2023-12-07T00:24:38;215.47;;;68.50;;
20488;SDS011;10403;54.092;12.122;2023-12-07T00:27:05;209.80;;;69.27;;
20488;SDS011;10403;54.092;12.122;2023-12-07T00:29:32;216.40;;;68.67;;
20488;SDS011;10403;54.092;12.122;2023-12-07T00:32:00;205.57;;;68.07;;
20488;SDS011;10403;54.092;12.122;2023-12-07T00:34:27;209.67;;;68.30;;
20488;SDS011;10403;54.092;12.122;2023-12-07T00:36:54;201.27;;;66.37;;
20488;SDS011;10403;54.092;12.122;2023-12-07T00:39:22;206.77;;;68.43;;
20488;SDS011;10403;54.092;12.122;2023-12-07T00:41:49;209.40;;;68.20;;
20488;SDS011;10403;54.092;12.122;2023-12-07T00:44:16;189.13;;;66.83;;
20488;SDS011;10403;54.092;12.122;2023-12-07T00:46:43;222.87;;;67.23;;
20488;SDS011;10403;54.092;12.122;2023-12-07T00:49:10;206.47;;;67.90;;
20488;SDS011;10403;54.092;12.122;2023-12-07T00:51:38;210.47;;;69.07;;
20488;SDS011;10403;54.092;12.122;2023-12-07T00:54:06;208.10;;;66.13;;
20488;SDS011;10403;54.092;12.122;2023-12-07T00:56:33;206.57;;;68.37;;
20488;SDS011;10403;54.092;12.122;2023-12-07T00:59:00;216.00;;;69.23;;
20488;SDS011;10403;54.092;12.122;2023-12-07T01:01:27;234.83;;;69.37;;
20488;SDS011;10403;54.092;12.122;2023-12-07T01:03:55;197.50;;;67.53;;
20488;SDS011;10403;54.092;12.122;2023-12-07T01:06:22;204.00;;;66.60;;
20488;SDS011;10403;54.092;12.122;2023-12-07T01:08:49;202.87;;;69.13;;
20488;SDS011;10403;54.092;12.122;2023-12-07T01:11:16;227.13;;;69.07;;
20488;SDS011;10403;54.092;12.122;2023-12-07T01:13:43;208.27;;;68.07;;
20488;SDS011;10403;54.092;12.122;2023-12-07T01:16:10;218.10;;;69.10;;
20488;SDS011;10403;54.092;12.122;2023-12-07T01:18:38;192.90;;;66.10;;
20488;SDS011;10403;54.092;12.122;2023-12-07T01:21:05;215.97;;;68.63;;
20488;SDS011;10403;54.092;12.122;2023-12-07T01:23:32;211.47;;;67.07;;
20488;SDS011;10403;54.092;12.122;2023-12-07T01:26:00;223.73;;;70.30;;
20488;SDS011;10403;54.092;12.122;2023-12-07T01:28:29;201.43;;;65.73;;
20488;SDS011;10403;54.092;12.122;2023-12-07T01:30:56;209.10;;;68.27;;
20488;SDS011;10403;54.092;12.122;2023-12-07T01:33:23;215.07;;;71.83;;
20488;SDS011;10403;54.092;12.122;2023-12-07T01:35:50;200.63;;;66.13;;
20488;SDS011;10403;54.092;12.122;2023-12-07T01:38:18;208.00;;;68.83;;
20488;SDS011;10403;54.092;12.122;2023-12-07T01:40:46;202.50;;;68.67;;
20488;SDS011;10403;54.092;12.122;2023-12-07T01:43:13;207.73;;;69.70;;
20488;SDS011;10403;54.092;12.122;2023-12-07T01:45:40;206.20;;;68.67;;
20488;SDS011;10403;54.092;12.122;2023-12-07T01:48:07;216.03;;;69.23;;
20488;SDS011;10403;54.092;12.122;2023-12-07T01:50:35;216.77;;;70.63;;
20488;SDS011;10403;54.092;12.122;2023-12-07T01:53:02;217.80;;;71.27;;
20488;SDS011;10403;54.092;12.122;2023-12-07T01:55:35;229.80;;;69.67;;
20488;SDS011;10403;54.092;12.122;2023-12-07T01:58:03;214.67;;;70.47;;
20488;SDS011;10403;54.092;12.122;2023-12-07T02:00:32;204.50;;;68.77;;
20488;SDS011;10403;54.092;12.122;2023-12-07T02:03:02;201.10;;;70.07;;
20488;SDS011;10403;54.092;12.122;2023-12-07T02:05:31;208.87;;;68.57;;
20488;SDS011;10403;54.092;12.122;2023-12-07T02:07:59;226.00;;;72.20;;
20488;SDS011;10403;54.092;12.122;2023-12-07T02:10:26;218.83;;;69.93;;
20488;SDS011;10403;54.092;12.122;2023-12-07T02:12:54;205.37;;;68.57;;
20488;SDS011;10403;54.092;12.122;2023-12-07T02:15:21;208.37;;;68.20;;
20488;SDS011;10403;54.092;12.122;2023-12-07T02:17:51;215.83;;;73.43;;
20488;SDS011;10403;54.092;12.122;2023-12-07T02:20:31;220.10;;;71.13;;
20488;SDS011;10403;54.092;12.122;2023-12-07T02:23:15;204.20;;;66.43;;
20488;SDS011;10403;54.092;12.122;2023-12-07T02:26:03;208.23;;;69.27;;
20488;SDS011;10403;54.092;12.122;2023-12-07T02:28:34;218.10;;;68.77;;
20488;SDS011;10403;54.092;12.122;2023-12-07T02:31:01;218.63;;;69.17;;
20488;SDS011;10403;54.092;12.122;2023-12-07T02:33:29;211.10;;;69.73;;
20488;SDS011;10403;54.092;12.122;2023-12-07T02:35:56;207.97;;;67.43;;
20488;SDS011;10403;54.092;12.122;2023-12-07T02:38:25;218.37;;;70.57;;
20488;SDS011;10403;54.092;12.122;2023-12-07T02:40:54;212.87;;;70.43;;
20488;SDS011;10403;54.092;12.122;2023-12-07T02:43:23;200.73;;;67.17;;
20488;SDS011;10403;54.092;12.122;2023-12-07T02:45:50;225.13;;;69.40;;
20488;SDS011;10403;54.092;12.122;2023-12-07T02:48:20;212.13;;;70.50;;
20488;SDS011;10403;54.092;12.122;2023-12-07T02:50:47;216.00;;;68.17;;
20488;SDS011;10403;54.092;12.122;2023-12-07T02:53:14;214.37;;;67.80;;
20488;SDS011;10403;54.092;12.122;2023-12-07T02:55:42;220.63;;;70.93;;
20488;SDS011;10403;54.092;12.122;2023-12-07T02:58:09;210.00;;;70.27;;
20488;SDS011;10403;54.092;12.122;2023-12-07T03:00:36;210.87;;;69.63;;
20488;SDS011;10403;54.092;12.122;2023-12-07T03:03:03;205.90;;;67.23;;
20488;SDS011;10403;54.092;12.122;2023-12-07T03:05:30;223.87;;;68.83;;
20488;SDS011;10403;54.092;12.122;2023-12-07T03:07:57;209.87;;;70.10;;
20488;SDS011;10403;54.092;12.122;2023-12-07T03:10:25;207.13;;;68.33;;
20488;SDS011;10403;54.092;12.122;2023-12-07T03:12:52;214.43;;;67.37;;
20488;SDS011;10403;54.092;12.122;2023-12-07T03:15:19;216.20;;;66.27;;
20488;SDS011;10403;54.092;12.122;2023-12-07T03:17:46;220.57;;;69.07;;
20488;SDS011;10403;54.092;12.122;2023-12-07T03:20:13;230.80;;;68.77;;
20488;SDS011;10403;54.092;12.122;2023-12-07T03:31:18;226.00;;;68.37;;
20488;SDS011;10403;54.092;12.122;2023-12-07T03:33:45;231.37;;;69.63;;
20488;SDS011;10403;54.092;12.122;2023-12-07T03:36:13;236.13;;;70.90;;
20488;SDS011;10403;54.092;12.122;2023-12-07T03:38:40;221.13;;;68.97;;
20488;SDS011;10403;54.092;12.122;2023-12-07T03:41:07;235.23;;;70.43;;
20488;SDS011;10403;54.092;12.122;2023-12-07T03:43:34;219.50;;;66.10;;
20488;SDS011;10403;54.092;12.122;2023-12-07T03:46:05;233.40;;;72.27;;
20488;SDS011;10403;54.092;12.122;2023-12-07T03:48:35;273.00;;;75.37;;
20488;SDS011;10403;54.092;12.122;2023-12-07T03:51:02;239.67;;;72.23;;
20488;SDS011;10403;54.092;12.122;2023-12-07T03:53:30;255.13;;;76.57;;
20488;SDS011;10403;54.092;12.122;2023-12-07T03:55:57;266.47;;;74.93;;
20488;SDS011;10403;54.092;12.122;2023-12-07T03:58:24;256.80;;;75.07;;
20488;SDS011;10403;54.092;12.122;2023-12-07T04:00:51;266.40;;;77.60;;
20488;SDS011;10403;54.092;12.122;2023-12-07T04:03:19;264.50;;;74.27;;
20488;SDS011;10403;54.092;12.122;2023-12-07T04:05:46;274.53;;;79.13;;
20488;SDS011;10403;54.092;12.122;2023-12-07T04:08:14;273.80;;;75.10;;
20488;SDS011;10403;54.092;12.122;2023-12-07T04:10:41;273.70;;;73.30;;
20488;SDS011;10403;54.092;12.122;2023-12-07T04:13:09;248.50;;;73.20;;
20488;SDS011;10403;54.092;12.122;2023-12-07T04:15:36;260.33;;;75.53;;
20488;SDS011;10403;54.092;12.122;2023-12-07T04:18:03;260.53;;;75.83;;
20488;SDS011;10403;54.092;12.122;2023-12-07T04:20:30;263.93;;;75.60;;
20488;SDS011;10403;54.092;12.122;2023-12-07T04:22:57;264.00;;;74.87;;
20488;SDS011;10403;54.092;12.122;2023-12-07T04:25:24;260.83;;;75.60;;
20488;SDS011;10403;54.092;12.122;2023-12-07T04:27:51;256.67;;;74.53;;
20488;SDS011;10403;54.092;12.122;2023-12-07T04:30:19;243.70;;;74.43;;
20488;SDS011;10403;54.092;12.122;2023-12-07T04:32:46;267.30;;;74.43;;
20488;SDS011;10403;54.092;12.122;2023-12-07T04:35:13;255.40;;;76.23;;
20488;SDS011;10403;54.092;12.122;2023-12-07T04:37:40;264.87;;;76.73;;
20488;SDS011;10403;54.092;12.122;2023-12-07T04:40:08;252.07;;;75.30;;
20488;SDS011;10403;54.092;12.122;2023-12-07T04:42:37;253.50;;;73.33;;
20488;SDS011;10403;54.092;12.122;2023-12-07T04:45:04;256.40;;;75.67;;
20488;SDS011;10403;54.092;12.122;2023-12-07T04:47:32;249.10;;;72.43;;
20488;SDS011;10403;54.092;12.122;2023-12-07T04:49:59;254.57;;;74.30;;
20488;SDS011;10403;54.092;12.122;2023-12-07T04:52:27;254.70;;;73.13;;
20488;SDS011;10403;54.092;12.122;2023-12-07T04:54:55;238.13;;;73.90;;
20488;SDS011;10403;54.092;12.122;2023-12-07T04:57:22;254.83;;;74.63;;
20488;SDS011;10403;54.092;12.122;2023-12-07T04:59:49;255.83;;;74.57;;
20488;SDS011;10403;54.092;12.122;2023-12-07T05:02:16;251.60;;;75.00;;
20488;SDS011;10403;54.092;12.122;2023-12-07T05:04:44;258.90;;;72.77;;
20488;SDS011;10403;54.092;12.122;2023-12-07T05:07:12;249.13;;;71.57;;
20488;SDS011;10403;54.092;12.122;2023-12-07T05:09:40;244.47;;;73.13;;
20488;SDS011;10403;54.092;12.122;2023-12-07T05:12:07;251.60;;;71.23;;
20488;SDS011;10403;54.092;12.122;2023-12-07T05:14:35;246.07;;;73.53;;
20488;SDS011;10403;54.092;12.122;2023-12-07T05:17:02;251.13;;;69.17;;
20488;SDS011;10403;54.092;12.122;2023-12-07T05:19:31;243.50;;;71.73;;
20488;SDS011;10403;54.092;12.122;2023-12-07T05:21:58;244.30;;;70.33;;
20488;SDS011;10403;54.092;12.122;2023-12-07T05:24:26;220.60;;;67.53;;
20488;SDS011;10403;54.092;12.122;2023-12-07T05:26:54;251.30;;;73.20;;
20488;SDS011;10403;54.092;12.122;2023-12-07T05:29:21;255.90;;;72.80;;
20488;SDS011;10403;54.092;12.122;2023-12-07T05:31:49;234.27;;;72.47;;
20488;SDS011;10403;54.092;12.122;2023-12-07T05:34:19;248.67;;;73.33;;
20488;SDS011;10403;54.092;12.122;2023-12-07T05:36:46;236.03;;;67.00;;
20488;SDS011;10403;54.092;12.122;2023-12-07T05:39:14;232.93;;;72.40;;
20488;SDS011;10403;54.092;12.122;2023-12-07T05:41:43;242.80;;;69.40;;
20488;SDS011;10403;54.092;12.122;2023-12-07T05:44:13;247.10;;;70.27;;
20488;SDS011;10403;54.092;12.122;2023-12-07T05:46:40;236.97;;;71.77;;
20488;SDS011;10403;54.092;12.122;2023-12-07T05:49:10;230.83;;;70.37;;
20488;SDS011;10403;54.092;12.122;2023-12-07T05:51:38;247.73;;;71.50;;
20488;SDS011;10403;54.092;12.122;2023-12-07T05:54:06;243.87;;;68.33;;
20488;SDS011;10403;54.092;12.122;2023-12-07T05:56:33;255.03;;;70.00;;
20488;SDS011;10403;54.092;12.122;2023-12-07T05:59:00;246.87;;;70.17;;
20488;SDS011;10403;54.092;12.122;2023-12-07T06:01:27;251.30;;;70.67;;
20488;SDS011;10403;54.092;12.122;2023-12-07T06:03:55;246.07;;;72.10;;
20488;SDS011;10403;54.092;12.122;2023-12-07T06:06:22;248.37;;;69.37;;
20488;SDS011;10403;54.092;12.122;2023-12-07T06:08:49;250.53;;;73.73;;
20488;SDS011;10403;54.092;12.122;2023-12-07T06:11:16;234.60;;;69.13;;
20488;SDS011;10403;54.092;12.122;2023-12-07T06:13:43;250.83;;;72.33;;
20488;SDS011;10403;54.092;12.122;2023-12-07T06:16:13;242.47;;;72.13;;
20488;SDS011;10403;54.092;12.122;2023-12-07T06:18:41;234.23;;;69.97;;
20488;SDS011;10403;54.092;12.122;2023-12-07T06:21:08;258.23;;;71.67;;
20488;SDS011;10403;54.092;12.122;2023-12-07T06:23:35;269.73;;;73.23;;
20488;SDS011;10403;54.092;12.122;2023-12-07T06:26:03;250.53;;;69.57;;
20488;SDS011;10403;54.092;12.122;2023-12-07T06:28:31;262.63;;;70.67;;
20488;SDS011;10403;54.092;12.122;2023-12-07T06:31:05;260.60;;;71.17;;
20488;SDS011;10403;54.092;12.122;2023-12-07T06:33:33;254.90;;;68.37;;
20488;SDS011;10403;54.092;12.122;2023-12-07T06:36:01;266.50;;;74.17;;
20488;SDS011;10403;54.092;12.122;2023-12-07T06:38:31;255.90;;;73.40;;
20488;SDS011;10403;54.092;12.122;2023-12-07T06:40:58;241.57;;;66.13;;
20488;SDS011;10403;54.092;12.122;2023-12-07T06:43:26;256.03;;;68.70;;
20488;SDS011;10403;54.092;12.122;2023-12-07T06:45:53;255.30;;;70.07;;
20488;SDS011;10403;54.092;12.122;2023-12-07T06:48:20;260.83;;;68.83;;
20488;SDS011;10403;54.092;12.122;2023-12-07T06:50:47;254.13;;;70.17;;
20488;SDS011;10403;54.092;12.122;2023-12-07T06:53:14;232.00;;;65.57;;
20488;SDS011;10403;54.092;12.122;2023-12-07T06:55:42;235.10;;;67.03;;
20488;SDS011;10403;54.092;12.122;2023-12-07T06:58:11;235.97;;;67.50;;
20488;SDS011;10403;54.092;12.122;2023-12-07T07:00:38;220.47;;;65.30;;
20488;SDS011;10403;54.092;12.122;2023-12-07T07:03:05;219.27;;;65.67;;
20488;SDS011;10403;54.092;12.122;2023-12-07T07:05:33;226.70;;;66.63;;
20488;SDS011;10403;54.092;12.122;2023-12-07T07:08:00;241.43;;;65.30;;
20488;SDS011;10403;54.092;12.122;2023-12-07T07:10:27;230.73;;;65.07;;
20488;SDS011;10403;54.092;12.122;2023-12-07T07:12:54;242.00;;;64.90;;
20488;SDS011;10403;54.092;12.122;2023-12-07T07:15:26;233.40;;;63.50;;
20488;SDS011;10403;54.092;12.122;2023-12-07T07:17:55;232.10;;;65.23;;
20488;SDS011;10403;54.092;12.122;2023-12-07T07:20:22;219.00;;;62.03;;
20488;SDS011;10403;54.092;12.122;2023-12-07T07:22:49;222.30;;;63.37;;
20488;SDS011;10403;54.092;12.122;2023-12-07T07:25:16;233.90;;;62.10;;
20488;SDS011;10403;54.092;12.122;2023-12-07T07:27:45;211.70;;;61.57;;
20488;SDS011;10403;54.092;12.122;2023-12-07T07:30:13;214.50;;;61.13;;
20488;SDS011;10403;54.092;12.122;2023-12-07T07:32:40;217.77;;;58.97;;
20488;SDS011;10403;54.092;12.122;2023-12-07T07:35:07;224.03;;;60.17;;
20488;SDS011;10403;54.092;12.122;2023-12-07T07:37:38;238.80;;;60.83;;
20488;SDS011;10403;54.092;12.122;2023-12-07T07:40:06;211.20;;;60.00;;
20488;SDS011;10403;54.092;12.122;2023-12-07T07:42:34;234.90;;;65.20;;
20488;SDS011;10403;54.092;12.122;2023-12-07T07:45:01;205.93;;;58.87;;
20488;SDS011;10403;54.092;12.122;2023-12-07T07:47:28;207.93;;;60.03;;
20488;SDS011;10403;54.092;12.122;2023-12-07T07:49:55;236.00;;;60.80;;
20488;SDS011;10403;54.092;12.122;2023-12-07T07:52:22;218.83;;;58.23;;
20488;SDS011;10403;54.092;12.122;2023-12-07T07:54:50;223.23;;;61.53;;
20488;SDS011;10403;54.092;12.122;2023-12-07T07:57:17;224.50;;;60.73;;
20488;SDS011;10403;54.092;12.122;2023-12-07T07:59:44;219.37;;;61.57;;
20488;SDS011;10403;54.092;12.122;2023-12-07T08:02:11;229.33;;;62.37;;
20488;SDS011;10403;54.092;12.122;2023-12-07T08:04:38;229.83;;;62.23;;
20488;SDS011;10403;54.092;12.122;2023-12-07T08:07:05;234.97;;;66.30;;
20488;SDS011;10403;54.092;12.122;2023-12-07T08:09:34;231.57;;;66.30;;
20488;SDS011;10403;54.092;12.122;2023-12-07T08:12:01;244.20;;;64.73;;
20488;SDS011;10403;54.092;12.122;2023-12-07T08:14:28;227.67;;;63.83;;
20488;SDS011;10403;54.092;12.122;2023-12-07T08:16:56;235.70;;;64.90;;
20488;SDS011;10403;54.092;12.122;2023-12-07T08:19:23;239.90;;;64.73;;
20488;SDS011;10403;54.092;12.122;2023-12-07T08:21:50;264.10;;;69.97;;
20488;SDS011;10403;54.092;12.122;2023-12-07T08:24:17;263.23;;;69.37;;
20488;SDS011;10403;54.092;12.122;2023-12-07T08:26:44;260.00;;;69.07;;
20488;SDS011;10403;54.092;12.122;2023-12-07T08:29:12;261.20;;;70.20;;
20488;SDS011;10403;54.092;12.122;2023-12-07T08:31:42;263.20;;;69.27;;
20488;SDS011;10403;54.092;12.122;2023-12-07T08:34:09;246.27;;;68.17;;
20488;SDS011;10403;54.092;12.122;2023-12-07T08:36:37;247.90;;;67.10;;
20488;SDS011;10403;54.092;12.122;2023-12-07T08:39:04;258.20;;;68.47;;
20488;SDS011;10403;54.092;12.122;2023-12-07T08:41:36;260.63;;;71.43;;
20488;SDS011;10403;54.092;12.122;2023-12-07T08:44:04;267.27;;;74.93;;
20488;SDS011;10403;54.092;12.122;2023-12-07T08:46:32;272.83;;;68.10;;
20488;SDS011;10403;54.092;12.122;2023-12-07T08:49:00;239.23;;;68.93;;
20488;SDS011;10403;54.092;12.122;2023-12-07T08:51:28;271.23;;;68.87;;
20488;SDS011;10403;54.092;12.122;2023-12-07T08:53:56;245.80;;;69.00;;
20488;SDS011;10403;54.092;12.122;2023-12-07T08:56:23;250.93;;;67.50;;
20488;SDS011;10403;54.092;12.122;2023-12-07T08:58:50;264.07;;;67.83;;
20488;SDS011;10403;54.092;12.122;2023-12-07T09:01:18;253.03;;;68.30;;
20488;SDS011;10403;54.092;12.122;2023-12-07T09:03:57;263.60;;;73.00;;
20488;SDS011;10403;54.092;12.122;2023-12-07T09:06:25;247.07;;;67.60;;
20488;SDS011;10403;54.092;12.122;2023-12-07T09:08:53;231.10;;;65.63;;
20488;SDS011;10403;54.092;12.122;2023-12-07T09:11:21;251.17;;;65.83;;
20488;SDS011;10403;54.092;12.122;2023-12-07T09:13:49;246.37;;;67.17;;
20488;SDS011;10403;54.092;12.122;2023-12-07T09:16:16;242.77;;;65.73;;
20488;SDS011;10403;54.092;12.122;2023-12-07T09:18:44;236.77;;;65.53;;
20488;SDS011;10403;54.092;12.122;2023-12-07T09:21:12;234.43;;;67.60;;
20488;SDS011;10403;54.092;12.122;2023-12-07T09:23:43;217.90;;;63.97;;
20488;SDS011;10403;54.092;12.122;2023-12-07T09:26:11;220.50;;;64.70;;
20488;SDS011;10403;54.092;12.122;2023-12-07T09:28:38;236.73;;;64.17;;
20488;SDS011;10403;54.092;12.122;2023-12-07T09:31:07;231.47;;;66.07;;
20488;SDS011;10403;54.092;12.122;2023-12-07T09:33:34;245.23;;;67.20;;
20488;SDS011;10403;54.092;12.122;2023-12-07T09:36:01;242.90;;;65.30;;
20488;SDS011;10403;54.092;12.122;2023-12-07T09:38:37;256.33;;;65.47;;
20488;SDS011;10403;54.092;12.122;2023-12-07T09:41:04;242.50;;;65.63;;
20488;SDS011;10403;54.092;12.122;2023-12-07T09:43:32;227.17;;;63.30;;
20488;SDS011;10403;54.092;12.122;2023-12-07T09:45:59;233.77;;;64.93;;
20488;SDS011;10403;54.092;12.122;2023-12-07T09:48:27;225.73;;;63.93;;
20488;SDS011;10403;54.092;12.122;2023-12-07T09:50:55;249.00;;;67.73;;
20488;SDS011;10403;54.092;12.122;2023-12-07T09:53:23;227.10;;;64.13;;
20488;SDS011;10403;54.092;12.122;2023-12-07T09:55:51;249.43;;;66.90;;
20488;SDS011;10403;54.092;12.122;2023-12-07T09:58:18;241.53;;;66.27;;
20488;SDS011;10403;54.092;12.122;2023-12-07T10:01:00;243.80;;;64.50;;
20488;SDS011;10403;54.092;12.122;2023-12-07T10:03:28;236.03;;;63.90;;
20488;SDS011;10403;54.092;12.122;2023-12-07T10:05:58;238.03;;;62.90;;
20488;SDS011;10403;54.092;12.122;2023-12-07T10:08:27;232.37;;;66.10;;
20488;SDS011;10403;54.092;12.122;2023-12-07T10:11:09;234.13;;;64.03;;
20488;SDS011;10403;54.092;12.122;2023-12-07T10:13:39;219.23;;;61.90;;
20488;SDS011;10403;54.092;12.122;2023-12-07T10:16:09;218.77;;;64.70;;
20488;SDS011;10403;54.092;12.122;2023-12-07T10:18:38;223.47;;;65.17;;
20488;SDS011;10403;54.092;12.122;2023-12-07T10:21:10;230.30;;;65.47;;
20488;SDS011;10403;54.092;12.122;2023-12-07T10:23:37;231.47;;;64.90;;
20488;SDS011;10403;54.092;12.122;2023-12-07T10:26:07;216.30;;;66.30;;
20488;SDS011;10403;54.092;12.122;2023-12-07T10:28:35;222.80;;;65.37;;
20488;SDS011;10403;54.092;12.122;2023-12-07T10:31:03;223.33;;;63.60;;
20488;SDS011;10403;54.092;12.122;2023-12-07T10:33:36;197.23;;;59.97;;
20488;SDS011;10403;54.092;12.122;2023-12-07T10:36:04;216.33;;;63.13;;
20488;SDS011;10403;54.092;12.122;2023-12-07T10:38:33;212.07;;;61.87;;
20488;SDS011;10403;54.092;12.122;2023-12-07T10:41:04;212.80;;;63.17;;
20488;SDS011;10403;54.092;12.122;2023-12-07T10:43:41;209.33;;;65.57;;
20488;SDS011;10403;54.092;12.122;2023-12-07T10:46:12;208.13;;;65.17;;
20488;SDS011;10403;54.092;12.122;2023-12-07T10:48:45;217.30;;;60.47;;
20488;SDS011;10403;54.092;12.122;2023-12-07T10:51:17;209.00;;;61.07;;
20488;SDS011;10403;54.092;12.122;2023-12-07T10:54:05;209.93;;;63.03;;
20488;SDS011;10403;54.092;12.122;2023-12-07T10:56:38;214.53;;;62.57;;
20488;SDS011;10403;54.092;12.122;2023-12-07T10:59:09;232.27;;;63.97;;
20488;SDS011;10403;54.092;12.122;2023-12-07T11:01:45;224.07;;;63.20;;
20488;SDS011;10403;54.092;12.122;2023-12-07T11:04:14;231.53;;;64.80;;
20488;SDS011;10403;54.092;12.122;2023-12-07T11:06:44;228.67;;;61.07;;
20488;SDS011;10403;54.092;12.122;2023-12-07T11:09:19;284.73;;;68.03;;
20488;SDS011;10403;54.092;12.122;2023-12-07T11:12:03;289.63;;;72.27;;
20488;SDS011;10403;54.092;12.122;2023-12-07T11:14:43;247.33;;;66.03;;
20488;SDS011;10403;54.092;12.122;2023-12-07T11:17:11;249.80;;;63.20;;
20488;SDS011;10403;54.092;12.122;2023-12-07T11:19:48;224.20;;;61.37;;
20488;SDS011;10403;54.092;12.122;2023-12-07T11:22:17;244.40;;;61.07;;
20488;SDS011;10403;54.092;12.122;2023-12-07T11:24:55;283.80;;;64.10;;
20488;SDS011;10403;54.092;12.122;2023-12-07T11:27:31;231.10;;;60.50;;
20488;SDS011;10403;54.092;12.122;2023-12-07T11:29:59;247.20;;;62.70;;
20488;SDS011;10403;54.092;12.122;2023-12-07T11:32:27;244.10;;;62.83;;
20488;SDS011;10403;54.092;12.122;2023-12-07T11:34:59;255.00;;;64.30;;
20488;SDS011;10403;54.092;12.122;2023-12-07T11:40:36;236.33;;;63.07;;
20488;SDS011;10403;54.092;12.122;2023-12-07T11:45:59;230.67;;;58.37;;
20488;SDS011;10403;54.092;12.122;2023-12-07T11:48:27;244.50;;;59.30;;
20488;SDS011;10403;54.092;12.122;2023-12-07T11:53:32;240.90;;;57.57;;
20488;SDS011;10403;54.092;12.122;2023-12-07T11:56:02;238.27;;;59.47;;
20488;SDS011;10403;54.092;12.122;2023-12-07T11:58:37;213.77;;;57.13;;
20488;SDS011;10403;54.092;12.122;2023-12-07T12:01:07;233.70;;;59.20;;
20488;SDS011;10403;54.092;12.122;2023-12-07T12:03:35;238.07;;;58.20;;
20488;SDS011;10403;54.092;12.122;2023-12-07T12:06:04;227.43;;;60.33;;
20488;SDS011;10403;54.092;12.122;2023-12-07T12:08:35;252.00;;;57.87;;
20488;SDS011;10403;54.092;12.122;2023-12-07T12:11:02;249.20;;;59.43;;
20488;SDS011;10403;54.092;12.122;2023-12-07T12:13:29;235.80;;;58.37;;
20488;SDS011;10403;54.092;12.122;2023-12-07T12:16:00;242.67;;;60.10;;
20488;SDS011;10403;54.092;12.122;2023-12-07T12:18:32;221.63;;;56.37;;
20488;SDS011;10403;54.092;12.122;2023-12-07T12:21:00;225.77;;;59.37;;
20488;SDS011;10403;54.092;12.122;2023-12-07T12:23:28;224.47;;;57.10;;
20488;SDS011;10403;54.092;12.122;2023-12-07T12:25:56;219.77;;;58.07;;
20488;SDS011;10403;54.092;12.122;2023-12-07T12:28:24;243.40;;;56.87;;
20488;SDS011;10403;54.092;12.122;2023-12-07T12:30:52;221.37;;;56.10;;
20488;SDS011;10403;54.092;12.122;2023-12-07T12:33:21;216.87;;;55.00;;
20488;SDS011;10403;54.092;12.122;2023-12-07T12:36:02;218.97;;;57.57;;
20488;SDS011;10403;54.092;12.122;2023-12-07T12:38:33;222.07;;;57.57;;
20488;SDS011;10403;54.092;12.122;2023-12-07T12:41:09;215.87;;;53.07;;
20488;SDS011;10403;54.092;12.122;2023-12-07T12:43:37;215.40;;;56.47;;
20488;SDS011;10403;54.092;12.122;2023-12-07T12:46:05;213.23;;;56.17;;
20488;SDS011;10403;54.092;12.122;2023-12-07T12:48:33;223.43;;;56.20;;
20488;SDS011;10403;54.092;12.122;2023-12-07T12:51:07;208.43;;;56.50;;
20488;SDS011;10403;54.092;12.122;2023-12-07T12:53:45;216.43;;;57.87;;
20488;SDS011;10403;54.092;12.122;2023-12-07T12:56:18;222.13;;;55.27;;
20488;SDS011;10403;54.092;12.122;2023-12-07T12:58:51;199.67;;;52.67;;
20488;SDS011;10403;54.092;12.122;2023-12-07T13:01:30;210.93;;;54.67;;
20488;SDS011;10403;54.092;12.122;2023-12-07T13:03:58;211.27;;;51.90;;
20488;SDS011;10403;54.092;12.122;2023-12-07T13:06:25;207.30;;;53.63;;
20488;SDS011;10403;54.092;12.122;2023-12-07T13:08:53;188.73;;;50.20;;
20488;SDS011;10403;54.092;12.122;2023-12-07T13:11:20;217.23;;;54.10;;
20488;SDS011;10403;54.092;12.122;2023-12-07T13:13:47;213.10;;;53.57;;
20488;SDS011;10403;54.092;12.122;2023-12-07T13:16:18;200.33;;;52.67;;
20488;SDS011;10403;54.092;12.122;2023-12-07T13:18:46;201.87;;;52.70;;
20488;SDS011;10403;54.092;12.122;2023-12-07T13:21:13;217.37;;;53.37;;
20488;SDS011;10403;54.092;12.122;2023-12-07T13:23:42;205.60;;;51.37;;
20488;SDS011;10403;54.092;12.122;2023-12-07T13:26:13;195.27;;;51.57;;
20488;SDS011;10403;54.092;12.122;2023-12-07T13:28:41;185.17;;;52.13;;
20488;SDS011;10403;54.092;12.122;2023-12-07T13:31:08;199.03;;;51.47;;
20488;SDS011;10403;54.092;12.122;2023-12-07T13:33:36;195.07;;;53.63;;
20488;SDS011;10403;54.092;12.122;2023-12-07T13:36:18;212.27;;;53.23;;
20488;SDS011;10403;54.092;12.122;2023-12-07T13:38:47;194.90;;;53.73;;
20488;SDS011;10403;54.092;12.122;2023-12-07T13:41:14;195.87;;;51.10;;
20488;SDS011;10403;54.092;12.122;2023-12-07T13:43:41;193.37;;;52.87;;
20488;SDS011;10403;54.092;12.122;2023-12-07T13:46:08;196.73;;;49.40;;
20488;SDS011;10403;54.092;12.122;2023-12-07T13:48:37;198.00;;;52.67;;
20488;SDS011;10403;54.092;12.122;2023-12-07T13:51:04;197.00;;;51.03;;
20488;SDS011;10403;54.092;12.122;2023-12-07T13:53:32;187.10;;;51.93;;
20488;SDS011;10403;54.092;12.122;2023-12-07T13:56:00;177.00;;;48.87;;
20488;SDS011;10403;54.092;12.122;2023-12-07T13:58:30;181.67;;;48.93;;
20488;SDS011;10403;54.092;12.122;2023-12-07T14:00:58;169.07;;;47.73;;
20488;SDS011;10403;54.092;12.122;2023-12-07T14:03:25;169.13;;;47.73;;
20488;SDS011;10403;54.092;12.122;2023-12-07T14:05:52;184.53;;;50.17;;
20488;SDS011;10403;54.092;12.122;2023-12-07T14:08:19;181.77;;;50.30;;
20488;SDS011;10403;54.092;12.122;2023-12-07T14:10:46;174.97;;;49.57;;
20488;SDS011;10403;54.092;12.122;2023-12-07T14:13:14;175.00;;;50.97;;
20488;SDS011;10403;54.092;12.122;2023-12-07T14:15:44;172.20;;;47.87;;
20488;SDS011;10403;54.092;12.122;2023-12-07T14:18:11;174.27;;;48.00;;
20488;SDS011;10403;54.092;12.122;2023-12-07T14:20:41;167.33;;;47.77;;